createdAt,value
2018-06-19T00:01:44.534Z,14.49
2018-06-19T00:04:13.779Z,14.45
2018-06-19T00:06:42.980Z,14.49
2018-06-19T00:09:12.539Z,14.43
2018-06-19T00:11:41.848Z,14.34
2018-06-19T00:14:11.117Z,14.20
2018-06-19T00:16:41.480Z,14.12
2018-06-19T00:19:10.996Z,14.22
2018-06-19T00:22:01.388Z,14.08
2018-06-19T00:24:30.806Z,14.03
2018-06-19T00:27:00.017Z,13.92
2018-06-19T00:29:29.313Z,13.91
2018-06-19T00:31:58.678Z,13.93
2018-06-19T00:34:27.934Z,13.93
2018-06-19T00:36:57.270Z,14.03
2018-06-19T00:39:26.404Z,13.94
2018-06-19T00:41:56.710Z,13.90
2018-06-19T00:44:26.161Z,13.91
2018-06-19T00:46:56.234Z,13.87
2018-06-19T00:49:25.602Z,14.01
2018-06-19T00:51:54.832Z,13.95
2018-06-19T00:54:25.174Z,13.85
2018-06-19T00:56:59.804Z,13.88
2018-06-19T00:59:29.240Z,13.93
2018-06-19T01:01:59.828Z,13.91
2018-06-19T01:04:29.153Z,13.97
2018-06-19T01:06:58.749Z,13.94
2018-06-19T01:09:27.990Z,14.03
2018-06-19T01:11:57.357Z,14.12
2018-06-19T01:14:26.778Z,14.11
2018-06-19T01:16:56.203Z,14.12
2018-06-19T01:19:25.819Z,14.08
2018-06-19T01:21:55.084Z,14.09
2018-06-19T01:24:24.452Z,14.09
2018-06-19T01:26:53.785Z,14.03
2018-06-19T01:29:23.148Z,13.96
2018-06-19T01:31:52.520Z,13.84
2018-06-19T01:34:21.764Z,13.97
2018-06-19T01:36:51.166Z,14.01
2018-06-19T01:39:20.724Z,14.05
2018-06-19T01:41:50.187Z,14.03
2018-06-19T01:44:19.555Z,14.08
2018-06-19T01:46:49.046Z,14.05
2018-06-19T01:49:18.485Z,13.97
2018-06-19T01:51:47.859Z,13.99
2018-06-19T01:54:17.390Z,13.95
2018-06-19T01:56:46.880Z,13.88
2018-06-19T01:59:16.402Z,13.90
2018-06-19T02:01:46.404Z,13.90
2018-06-19T02:04:15.861Z,13.86
2018-06-19T02:06:45.225Z,13.91
2018-06-19T02:09:14.506Z,13.98
2018-06-19T02:11:43.812Z,13.98
2018-06-19T02:14:13.086Z,13.95
2018-06-19T02:16:42.435Z,13.80
2018-06-19T02:19:11.703Z,13.75
2018-06-19T02:21:41.013Z,13.81
2018-06-19T02:24:16.662Z,13.79
2018-06-19T02:26:45.966Z,13.77
2018-06-19T02:29:16.045Z,13.84
2018-06-19T02:31:45.420Z,13.91
2018-06-19T02:34:14.879Z,13.89
2018-06-19T02:36:44.391Z,13.84
2018-06-19T02:39:13.850Z,13.82
2018-06-19T02:41:44.123Z,13.83
2018-06-19T02:44:13.587Z,13.90
2018-06-19T02:46:42.913Z,13.91
2018-06-19T02:49:12.099Z,13.82
2018-06-19T02:51:41.392Z,13.88
2018-06-19T02:54:11.636Z,13.86
2018-06-19T02:56:40.998Z,13.91
2018-06-19T02:59:10.049Z,13.95
2018-06-19T03:01:39.374Z,13.89
2018-06-19T03:04:08.655Z,13.87
2018-06-19T03:06:37.920Z,13.90
2018-06-19T03:09:10.136Z,13.98
2018-06-19T03:11:39.579Z,13.99
2018-06-19T03:14:08.809Z,14.05
2018-06-19T03:16:38.208Z,14.06
2018-06-19T03:19:07.529Z,14.07
2018-06-19T03:21:36.909Z,14.03
2018-06-19T03:24:06.482Z,14.04
2018-06-19T03:26:35.865Z,14.07
2018-06-19T03:29:06.590Z,14.06
2018-06-19T03:31:36.300Z,14.04
2018-06-19T03:34:05.670Z,14.04
2018-06-19T03:36:35.145Z,14.07
2018-06-19T03:39:05.029Z,14.01
2018-06-19T03:41:34.577Z,14.05
2018-06-19T03:44:03.932Z,14.13
2018-06-19T03:46:33.417Z,14.14
2018-06-19T03:49:02.992Z,14.15
2018-06-19T03:51:32.701Z,14.20
2018-06-19T03:54:02.383Z,14.24
2018-06-19T03:56:32.693Z,14.29
2018-06-19T03:59:02.291Z,14.28
2018-06-19T04:01:31.650Z,14.25
2018-06-19T04:04:01.243Z,14.29
2018-06-19T04:06:32.601Z,14.35
2018-06-19T04:09:04.870Z,14.36
2018-06-19T04:11:34.182Z,14.39
2018-06-19T04:14:03.614Z,14.33
2018-06-19T04:16:33.122Z,14.37
2018-06-19T04:19:02.645Z,14.43
2018-06-19T04:21:32.157Z,14.45
2018-06-19T04:24:01.736Z,14.47
2018-06-19T04:26:32.133Z,14.48
2018-06-19T04:29:01.575Z,14.45
2018-06-19T04:31:31.503Z,14.41
2018-06-19T04:34:01.140Z,14.45
2018-06-19T04:36:30.524Z,14.49
2018-06-19T04:39:00.149Z,14.49
2018-06-19T04:41:29.481Z,14.52
2018-06-19T04:43:59.024Z,14.56
2018-06-19T04:46:28.349Z,14.59
2018-06-19T04:48:57.935Z,14.58
2018-06-19T04:51:27.199Z,14.62
2018-06-19T04:53:56.491Z,14.64
2018-06-19T04:56:25.636Z,14.71
2018-06-19T04:58:55.524Z,14.78
2018-06-19T05:01:25.046Z,14.81
2018-06-19T05:03:54.337Z,14.80
2018-06-19T05:06:23.785Z,14.87
2018-06-19T05:08:53.321Z,14.86
2018-06-19T05:11:22.776Z,14.90
2018-06-19T05:13:51.981Z,14.97
2018-06-19T05:16:21.312Z,14.89
2018-06-19T05:18:51.031Z,14.95
2018-06-19T05:21:20.390Z,14.99
2018-06-19T05:23:49.763Z,15.06
2018-06-19T05:26:19.116Z,15.15
2018-06-19T05:28:48.576Z,15.16
2018-06-19T05:31:17.919Z,15.23
2018-06-19T05:33:47.197Z,15.21
2018-06-19T05:36:16.482Z,15.25
2018-06-19T05:38:45.680Z,15.34
2018-06-19T05:41:15.083Z,15.35
2018-06-19T05:43:53.242Z,15.44
2018-06-19T05:46:22.874Z,15.43
2018-06-19T05:48:52.940Z,15.50
2018-06-19T05:51:22.238Z,15.66
2018-06-19T05:53:51.657Z,15.71
2018-06-19T05:56:21.123Z,15.63
2018-06-19T05:58:50.311Z,15.63
2018-06-19T06:01:19.923Z,15.53
2018-06-19T06:03:49.224Z,15.63
2018-06-19T06:06:18.808Z,15.70
2018-06-19T06:08:48.276Z,15.75
2018-06-19T06:11:17.690Z,15.76
2018-06-19T06:13:47.204Z,15.79
2018-06-19T06:16:16.545Z,15.88
2018-06-19T06:18:46.361Z,15.93
2018-06-19T06:21:16.026Z,15.96
2018-06-19T06:23:46.506Z,16.03
2018-06-19T06:26:15.997Z,16.08
2018-06-19T06:28:45.369Z,16.09
2018-06-19T06:31:14.612Z,16.12
2018-06-19T06:33:44.497Z,16.08
2018-06-19T06:36:14.520Z,16.16
2018-06-19T06:38:43.988Z,16.23
2018-06-19T06:41:13.277Z,16.29
2018-06-19T06:43:43.282Z,16.29
2018-06-19T06:46:12.836Z,16.24
2018-06-19T06:48:42.249Z,16.28
2018-06-19T06:51:12.386Z,16.28
2018-06-19T06:53:42.021Z,16.31
2018-06-19T06:56:11.527Z,16.40
2018-06-19T06:58:40.920Z,16.47
2018-06-19T07:01:10.230Z,16.57
2018-06-19T07:03:40.800Z,16.63
2018-06-19T07:06:10.677Z,16.70
2018-06-19T07:08:39.871Z,16.74
2018-06-19T07:11:09.202Z,16.83
2018-06-19T07:13:38.653Z,16.92
2018-06-19T07:16:08.110Z,16.95
2018-06-19T07:18:37.437Z,17.04
2018-06-19T07:21:06.715Z,17.15
2018-06-19T07:23:36.469Z,17.19
2018-06-19T07:26:05.720Z,17.31
2018-06-19T07:28:35.231Z,17.27
2018-06-19T07:31:04.877Z,17.30
2018-06-19T07:33:34.375Z,17.33
2018-06-19T07:36:03.817Z,17.30
2018-06-19T07:38:33.261Z,17.28
2018-06-19T07:41:02.609Z,17.40
2018-06-19T07:43:32.197Z,17.60
2018-06-19T07:46:02.207Z,17.74
2018-06-19T07:48:31.616Z,17.85
2018-06-19T07:51:01.002Z,17.80
2018-06-19T07:53:30.283Z,17.88
2018-06-19T07:55:59.829Z,18.19
2018-06-19T07:58:29.194Z,18.24
2018-06-19T08:00:58.450Z,18.41
2018-06-19T08:03:27.785Z,18.57
2018-06-19T08:05:57.414Z,18.91
2018-06-19T08:08:26.851Z,18.71
2018-06-19T08:10:56.279Z,18.57
2018-06-19T08:13:25.623Z,18.84
2018-06-19T08:15:54.913Z,19.31
2018-06-19T08:18:24.062Z,19.96
2018-06-19T08:20:53.419Z,19.97
2018-06-19T08:23:23.334Z,20.22
2018-06-19T08:25:52.609Z,20.06
2018-06-19T08:28:21.935Z,19.74
2018-06-19T08:30:51.248Z,20.02
2018-06-19T08:33:20.539Z,19.75
2018-06-19T08:35:49.783Z,20.03
2018-06-19T08:38:19.139Z,20.32
2018-06-19T08:40:48.509Z,20.27
2018-06-19T08:43:17.969Z,20.25
2018-06-19T08:45:47.250Z,20.02
2018-06-19T08:48:16.558Z,20.22
2018-06-19T08:50:45.900Z,20.33
2018-06-19T08:53:15.545Z,20.24
2018-06-19T08:55:44.771Z,20.37
2018-06-19T08:58:14.162Z,20.53
2018-06-19T09:00:43.556Z,20.84
2018-06-19T09:03:13.124Z,20.57
2018-06-19T09:05:42.539Z,20.69
2018-06-19T09:08:11.983Z,20.92
2018-06-19T09:10:41.269Z,20.97
2018-06-19T09:13:10.561Z,20.83
2018-06-19T09:15:42.929Z,21.06
2018-06-19T09:18:12.370Z,21.86
2018-06-19T09:20:41.840Z,21.73
2018-06-19T09:23:11.604Z,22.04
2018-06-19T09:25:41.099Z,22.41
2018-06-19T09:28:10.288Z,22.90
2018-06-19T09:30:39.327Z,22.35
2018-06-19T09:33:08.966Z,22.19
2018-06-19T09:35:38.463Z,22.29
2018-06-19T09:38:07.857Z,22.29
2018-06-19T09:40:37.257Z,22.09
2018-06-19T09:43:07.660Z,22.08
2018-06-19T09:45:36.943Z,22.27
2018-06-19T09:48:06.260Z,21.74
2018-06-19T09:50:35.228Z,22.00
2018-06-19T09:53:04.838Z,22.50
2018-06-19T09:55:34.626Z,22.83
2018-06-19T09:58:04.290Z,22.49
2018-06-19T10:00:36.009Z,22.72
2018-06-19T10:03:05.492Z,22.70
2018-06-19T10:05:35.051Z,22.90
2018-06-19T10:08:04.459Z,22.83
2018-06-19T10:10:33.855Z,23.45
2018-06-19T10:13:03.309Z,23.94
2018-06-19T10:15:32.706Z,23.58
2018-06-19T10:18:02.078Z,23.47
2018-06-19T10:20:34.333Z,23.20
2018-06-19T10:23:03.594Z,23.19
2018-06-19T10:25:32.944Z,22.96
2018-06-19T10:28:02.282Z,22.72
2018-06-19T10:30:31.581Z,23.06
2018-06-19T10:33:00.672Z,22.94
2018-06-19T10:35:29.823Z,22.97
2018-06-19T10:37:58.977Z,23.32
2018-06-19T10:40:28.018Z,23.94
2018-06-19T10:42:57.167Z,23.53
2018-06-19T10:45:26.169Z,22.99
2018-06-19T10:47:55.991Z,23.10
2018-06-19T10:50:25.091Z,23.43
2018-06-19T10:52:54.184Z,23.54
2018-06-19T10:55:23.183Z,24.02
2018-06-19T10:57:52.302Z,24.56
2018-06-19T11:00:21.313Z,24.08
2018-06-19T11:02:50.768Z,23.88
2018-06-19T11:05:20.309Z,23.96
2018-06-19T11:07:49.506Z,24.37
2018-06-19T11:10:18.995Z,23.87
2018-06-19T11:12:48.252Z,23.81
2018-06-19T11:15:17.898Z,23.94
2018-06-19T11:17:48.720Z,23.66
2018-06-19T11:20:18.804Z,23.71
2018-06-19T11:22:48.212Z,23.52
2018-06-19T11:25:17.597Z,23.71
2018-06-19T11:27:47.217Z,23.95
2018-06-19T11:30:17.178Z,23.93
2018-06-19T11:32:47.192Z,24.05
2018-06-19T11:35:16.252Z,23.97
2018-06-19T11:37:45.271Z,23.26
2018-06-19T11:40:14.777Z,23.62
2018-06-19T11:42:44.228Z,23.69
2018-06-19T11:45:13.841Z,23.57
2018-06-19T11:47:43.991Z,23.61
2018-06-19T11:50:13.495Z,23.55
2018-06-19T11:52:43.543Z,23.69
2018-06-19T11:55:12.961Z,23.82
2018-06-19T11:57:42.282Z,23.99
2018-06-19T12:00:11.478Z,23.51
2018-06-19T12:02:40.914Z,23.61
2018-06-19T12:05:10.151Z,23.61
2018-06-19T12:07:40.882Z,23.50
2018-06-19T12:10:11.016Z,23.51
2018-06-19T12:12:41.020Z,23.47
2018-06-19T12:15:10.378Z,23.41
2018-06-19T12:17:39.764Z,23.59
2018-06-19T12:20:09.919Z,24.18
2018-06-19T12:22:40.332Z,24.21
2018-06-19T12:25:09.784Z,23.80
2018-06-19T12:27:39.074Z,23.47
2018-06-19T12:30:08.636Z,23.34
2018-06-19T12:32:38.949Z,23.47
2018-06-19T12:35:08.475Z,23.47
2018-06-19T12:37:37.855Z,23.46
2018-06-19T12:40:07.726Z,23.80
2018-06-19T12:42:37.111Z,23.68
2018-06-19T12:45:08.458Z,23.74
2018-06-19T12:47:38.245Z,24.29
2018-06-19T12:50:48.134Z,24.76
2018-06-19T12:53:28.795Z,24.89
2018-06-19T12:56:09.521Z,24.26
2018-06-19T12:58:38.956Z,24.24
2018-06-19T13:01:08.622Z,24.02
2018-06-19T13:03:49.554Z,23.86
2018-06-19T13:06:30.184Z,23.88
2018-06-19T13:09:00.353Z,23.74
2018-06-19T13:11:30.018Z,23.83
2018-06-19T13:14:09.873Z,23.85
2018-06-19T13:16:51.048Z,23.75
2018-06-19T13:19:32.037Z,23.59
2018-06-19T13:22:02.780Z,23.65
2018-06-19T13:24:32.324Z,23.64
2018-06-19T13:27:01.739Z,23.71
2018-06-19T13:29:43.879Z,23.67
2018-06-19T13:32:13.326Z,23.76
2018-06-19T13:34:43.302Z,23.67
2018-06-19T13:37:12.765Z,23.53
2018-06-19T13:39:43.199Z,23.38
2018-06-19T13:42:30.998Z,23.45
2018-06-19T13:45:02.548Z,23.56
2018-06-19T13:47:32.001Z,23.66
2018-06-19T13:50:01.762Z,23.48
2018-06-19T13:52:32.164Z,23.53
2018-06-19T13:56:09.876Z,23.65
2018-06-19T13:58:39.510Z,24.37
2018-06-19T14:01:09.733Z,24.78
2018-06-19T14:03:40.174Z,24.91
2018-06-19T14:06:09.494Z,25.08
2018-06-19T14:08:50.432Z,24.85
2018-06-19T14:11:30.313Z,24.48
2018-06-19T14:14:00.347Z,24.55
2018-06-19T14:16:32.372Z,24.75
2018-06-19T14:19:01.841Z,24.75
2018-06-19T14:21:31.440Z,24.05
2018-06-19T14:24:01.913Z,24.10
2018-06-19T14:26:31.310Z,24.01
2018-06-19T14:29:00.705Z,24.09
2018-06-19T14:31:30.388Z,24.25
2018-06-19T14:34:00.185Z,24.12
2018-06-19T14:36:29.513Z,23.90
2018-06-19T14:39:00.579Z,24.14
2018-06-19T14:41:29.954Z,23.90
2018-06-19T14:44:00.064Z,23.82
2018-06-19T14:46:29.454Z,24.00
2018-06-19T14:48:59.272Z,24.00
2018-06-19T14:51:28.891Z,24.06
2018-06-19T14:53:59.241Z,24.21
2018-06-19T14:56:28.611Z,24.19
2018-06-19T14:58:58.243Z,24.35
2018-06-19T15:01:27.655Z,24.31
2018-06-19T15:03:57.001Z,24.24
2018-06-19T15:06:26.327Z,24.02
2018-06-19T15:08:55.847Z,23.92
2018-06-19T15:11:25.393Z,23.82
2018-06-19T15:13:55.611Z,23.97
2018-06-19T15:16:25.210Z,23.82
2018-06-19T15:18:54.832Z,23.95
2018-06-19T15:21:24.353Z,23.83
2018-06-19T15:23:53.672Z,23.77
2018-06-19T15:26:22.986Z,23.86
2018-06-19T15:28:53.137Z,23.98
2018-06-19T15:31:22.672Z,23.71
2018-06-19T15:33:51.910Z,23.55
2018-06-19T15:36:22.194Z,23.45
2018-06-19T15:38:52.010Z,23.40
2018-06-19T15:41:21.334Z,23.27
2018-06-19T15:43:50.956Z,23.23
2018-06-19T15:46:20.340Z,23.12
2018-06-19T15:48:50.437Z,23.28
2018-06-19T15:51:19.767Z,23.05
2018-06-19T15:53:49.298Z,23.09
2018-06-19T15:56:19.875Z,23.02
2018-06-19T15:58:49.648Z,22.92
2018-06-19T16:01:20.172Z,22.91
2018-06-19T16:03:49.627Z,22.86
2018-06-19T16:06:19.110Z,22.93
2018-06-19T16:08:48.909Z,22.96
2018-06-19T16:11:20.340Z,22.89
2018-06-19T16:13:49.721Z,22.91
2018-06-19T16:16:19.472Z,22.75
2018-06-19T16:18:50.131Z,22.74
2018-06-19T16:21:19.502Z,22.68
2018-06-19T16:23:49.851Z,22.66
2018-06-19T16:26:19.213Z,22.58
2018-06-19T16:28:49.213Z,22.51
2018-06-19T16:31:19.144Z,22.61
2018-06-19T16:33:49.190Z,22.53
2018-06-19T16:36:19.242Z,22.58
2018-06-19T16:38:48.606Z,22.47
2018-06-19T16:41:17.710Z,22.39
2018-06-19T16:43:47.212Z,22.48
2018-06-19T16:46:16.667Z,22.37
2018-06-19T16:48:45.848Z,22.21
2018-06-19T16:51:14.934Z,22.30
2018-06-19T16:53:44.281Z,22.36
2018-06-19T16:56:13.433Z,22.41
2018-06-19T16:58:42.456Z,22.36
2018-06-19T17:01:11.543Z,22.31
2018-06-19T17:03:40.575Z,22.21
2018-06-19T17:06:09.669Z,22.39
2018-06-19T17:08:38.848Z,22.39
2018-06-19T17:13:38.871Z,22.38
2018-06-19T17:16:07.977Z,22.25
2018-06-19T17:18:37.141Z,22.13
2018-06-19T17:21:06.532Z,22.04
2018-06-19T17:23:35.816Z,22.06
2018-06-19T17:26:05.543Z,21.99
2018-06-19T17:28:34.735Z,21.93
2018-06-19T17:31:04.557Z,21.92
2018-06-19T17:33:34.640Z,21.76
2018-06-19T17:36:03.949Z,21.75
2018-06-19T17:38:33.139Z,21.73
2018-06-19T17:41:03.485Z,21.79
2018-06-19T17:43:33.240Z,21.71
2018-06-19T17:46:02.620Z,21.68
2018-06-19T17:48:32.019Z,21.56
2018-06-19T17:51:01.660Z,21.53
2018-06-19T17:53:31.076Z,21.41
2018-06-19T17:56:00.619Z,21.44
2018-06-19T17:58:30.910Z,21.34
2018-06-19T18:01:00.298Z,21.49
2018-06-19T18:03:30.173Z,21.41
2018-06-19T18:05:59.892Z,21.27
2018-06-19T18:08:29.296Z,21.11
2018-06-19T18:10:58.620Z,21.14
2018-06-19T18:13:28.553Z,21.16
2018-06-19T18:15:57.582Z,21.17
2018-06-19T18:18:26.810Z,21.14
2018-06-19T18:20:57.268Z,21.06
2018-06-19T18:23:26.615Z,20.95
2018-06-19T18:25:57.001Z,20.83
2018-06-19T18:28:26.272Z,20.79
2018-06-19T18:30:56.286Z,20.73
2018-06-19T18:33:26.032Z,20.75
2018-06-19T18:35:55.712Z,20.74
2018-06-19T18:38:25.694Z,20.64
2018-06-19T18:40:55.208Z,20.59
2018-06-19T18:43:24.621Z,20.47
2018-06-19T18:45:55.091Z,20.38
2018-06-19T18:48:24.548Z,20.41
2018-06-19T18:50:54.071Z,20.38
2018-06-19T18:53:23.971Z,20.43
2018-06-19T18:55:53.458Z,20.38
2018-06-19T18:58:22.914Z,20.36
2018-06-19T19:00:53.243Z,20.37
2018-06-19T19:03:22.830Z,20.36
2018-06-19T19:05:52.069Z,20.23
2018-06-19T19:08:23.509Z,20.18
2018-06-19T19:10:59.107Z,20.17
2018-06-19T19:13:29.643Z,20.13
2018-06-19T19:16:03.965Z,20.13
2018-06-19T19:18:38.113Z,20.05
2018-06-19T19:21:07.666Z,19.95
2018-06-19T19:23:37.256Z,19.93
2018-06-19T19:26:06.951Z,19.73
2018-06-19T19:28:41.251Z,19.71
2018-06-19T19:31:10.714Z,19.68
2018-06-19T19:33:40.369Z,19.61
2018-06-19T19:36:14.706Z,19.54
2018-06-19T19:38:49.657Z,19.58
2018-06-19T19:41:19.061Z,19.48
2018-06-19T19:43:49.209Z,19.44
2018-06-19T19:46:23.622Z,19.43
2018-06-19T19:48:57.219Z,19.30
2018-06-19T19:51:28.140Z,19.27
2018-06-19T19:53:58.250Z,19.22
2018-06-19T19:56:33.020Z,19.16
2018-06-19T19:59:03.415Z,19.12
2018-06-19T20:01:32.810Z,19.05
2018-06-19T20:04:02.716Z,18.94
2018-06-19T20:06:32.006Z,18.92
2018-06-19T20:09:15.319Z,18.88
2018-06-19T20:11:45.247Z,18.90
2018-06-19T20:14:14.653Z,18.88
2018-06-19T20:16:45.726Z,18.87
2018-06-19T20:19:15.060Z,18.81
2018-06-19T20:21:45.052Z,18.86
2018-06-19T20:24:16.784Z,18.79
2018-06-19T20:26:47.312Z,18.74
2018-06-19T20:29:16.858Z,18.72
2018-06-19T20:31:46.280Z,18.70
2018-06-19T20:34:15.695Z,18.60
2018-06-19T20:36:45.649Z,18.59
2018-06-19T20:39:14.743Z,18.50
2018-06-19T20:41:43.973Z,18.42
2018-06-19T20:44:13.980Z,18.34
2018-06-19T20:46:43.904Z,18.34
2018-06-19T20:49:14.891Z,18.21
2018-06-19T20:51:44.258Z,18.18
2018-06-19T20:54:14.321Z,18.10
2018-06-19T20:56:44.021Z,18.05
2018-06-19T20:59:13.552Z,18.01
2018-06-19T21:01:43.560Z,17.99
2018-06-19T21:04:13.136Z,17.96
2018-06-19T21:06:42.494Z,17.93
2018-06-19T21:09:11.857Z,17.83
2018-06-19T21:11:41.292Z,17.85
2018-06-19T21:14:10.707Z,17.89
2018-06-19T21:16:40.333Z,17.90
2018-06-19T21:19:09.809Z,17.91
2018-06-19T21:21:39.272Z,17.95
2018-06-19T21:24:08.731Z,17.93
2018-06-19T21:26:38.239Z,17.92
2018-06-19T21:29:07.750Z,17.91
2018-06-19T21:31:37.277Z,17.80
2018-06-19T21:34:07.059Z,17.84
2018-06-19T21:36:36.628Z,17.83
2018-06-19T21:39:08.141Z,17.90
2018-06-19T21:41:37.634Z,17.92
2018-06-19T21:44:06.912Z,17.92
2018-06-19T21:46:36.253Z,17.94
2018-06-19T21:49:05.488Z,17.90
2018-06-19T21:51:34.861Z,17.86
2018-06-19T21:54:04.239Z,17.88
2018-06-19T21:56:33.614Z,17.88
2018-06-19T21:59:03.320Z,17.87
2018-06-19T22:01:32.685Z,17.86
2018-06-19T22:04:02.205Z,17.88
2018-06-19T22:06:31.728Z,17.89
2018-06-19T22:09:01.122Z,17.92
2018-06-19T22:11:30.357Z,17.93
2018-06-19T22:13:59.706Z,17.92
2018-06-19T22:16:28.991Z,17.85
2018-06-19T22:18:58.275Z,17.88
2018-06-19T22:21:27.689Z,17.91
2018-06-19T22:23:57.103Z,17.91
2018-06-19T22:26:26.468Z,17.88
2018-06-19T22:28:56.455Z,17.84
2018-06-19T22:31:25.793Z,17.76
2018-06-19T22:33:55.110Z,17.69
2018-06-19T22:36:24.629Z,17.57
2018-06-19T22:38:54.258Z,17.71
2018-06-19T22:41:23.663Z,17.75
2018-06-19T22:43:53.725Z,17.73
2018-06-19T22:46:23.145Z,17.62
2018-06-19T22:48:52.382Z,17.69
2018-06-19T22:51:21.800Z,17.69
2018-06-19T22:53:51.953Z,17.64
2018-06-19T22:56:21.391Z,17.57
2018-06-19T22:58:50.693Z,17.58
2018-06-19T23:01:19.964Z,17.61
2018-06-19T23:03:49.275Z,17.64
2018-06-19T23:06:18.989Z,17.63
2018-06-19T23:08:48.430Z,17.56
2018-06-19T23:11:18.989Z,17.56
2018-06-19T23:13:48.305Z,17.49
2018-06-19T23:16:17.656Z,17.54
2018-06-19T23:18:46.855Z,17.54
2018-06-19T23:21:16.222Z,17.56
2018-06-19T23:23:45.578Z,17.60
2018-06-19T23:26:14.832Z,17.51
2018-06-19T23:28:45.385Z,17.50
2018-06-19T23:31:14.628Z,17.53
2018-06-19T23:33:44.007Z,17.56
2018-06-19T23:36:13.526Z,17.54
2018-06-19T23:38:42.814Z,17.55
2018-06-19T23:41:12.014Z,17.54
2018-06-19T23:43:41.272Z,17.58
2018-06-19T23:46:10.615Z,17.59
2018-06-19T23:48:39.762Z,17.53
2018-06-19T23:51:09.057Z,17.53
2018-06-19T23:53:38.309Z,17.51
2018-06-19T23:56:07.699Z,17.50
2018-06-19T23:58:37.076Z,17.48
